Time;durP1;ratioP1;P1;durP2;ratioP2;P2;SDS_P1;SDS_P2;PMS_P1;PMS_P2;Temp;Humidity;BMP_temperature;BMP_pressure;BME280_temperature;BME280_humidity;BME280_pressure;Samples;Min_cycle;Max_cycle;Signal;HPM_P1;HPM_P2
2022/10/12 00:01:19;;;;;;;;;;;27.20;99.90;;;;;;5032232;28;19962;-59
2022/10/12 00:03:44;;;;;;;;;;;27.20;99.90;;;;;;5031940;28;19905;-60
2022/10/12 00:06:11;;;;;;;;;;;27.20;99.90;;;;;;5031883;28;19905;-59
2022/10/12 00:08:38;;;;;;;;;;;27.20;99.90;;;;;;5031820;28;19905;-59
2022/10/12 00:11:05;;;;;;;;;;;27.20;99.90;;;;;;5032031;28;20274;-59
2022/10/12 00:13:31;;;;;;;;;;;27.20;99.90;;;;;;5031639;28;19913;-58
2022/10/12 00:16:00;;;;;;;;;;;27.20;99.90;;;;;;5031724;28;19909;-58
2022/10/12 00:18:26;;;;;;;;;;;27.20;99.90;;;;;;5031602;28;19959;-59
2022/10/12 00:20:59;;;;;;;;;;;27.10;99.90;;;;;;5031648;28;19905;-59
2022/10/12 00:23:25;;;;;;;;;;;27.10;99.90;;;;;;5031649;28;19905;-59
2022/10/12 00:25:50;;;;;;;;;;;27.10;99.90;;;;;;5031481;28;19958;-59
2022/10/12 00:28:16;;;;;;;;;;;27.10;99.90;;;;;;5031611;28;19911;-62
2022/10/12 00:30:41;;;;;;;;;;;27.10;99.90;;;;;;5031532;28;19912;-59
2022/10/12 00:33:07;;;;;;;;;;;27.10;99.90;;;;;;5031740;28;19940;-60
2022/10/12 00:35:33;;;;;;;;;;;27.10;99.90;;;;;;5031606;28;19916;-59
2022/10/12 00:37:58;;;;;;;;;;;27.10;99.90;;;;;;5031416;28;19919;-59
2022/10/12 00:40:24;;;;;;;;;;;27.10;99.90;;;;;;5031598;28;19905;-60
2022/10/12 00:42:49;;;;;;;;;;;27.10;99.90;;;;;;5031528;28;19951;-59
2022/10/12 00:45:15;;;;;;;;;;;27.00;99.90;;;;;;5031577;28;19951;-60
2022/10/12 00:47:46;;;;;;;;;;;27.00;99.90;;;;;;5031393;28;19992;-59
2022/10/12 00:50:31;;;;;;;;;;;27.00;99.90;;;;;;5031456;28;19905;-60
2022/10/12 00:53:13;;;;;;;;;;;27.00;99.90;;;;;;5031348;28;19905;-58
2022/10/12 00:55:43;;;;;;;;;;;27.00;99.90;;;;;;5031333;28;19913;-59
2022/10/12 00:58:09;;;;;;;;;;;27.00;99.90;;;;;;5032532;28;19909;-59
2022/10/12 01:00:35;;;;;;;;;;;27.00;99.90;;;;;;5035853;28;19917;-60
2022/10/12 01:03:01;;;;;;;;;;;27.00;99.90;;;;;;5035285;28;19912;-59
2022/10/12 01:05:27;;;;;;;;;;;27.00;99.90;;;;;;5035147;28;19909;-58
2022/10/12 01:07:53;;;;;;;;;;;27.00;99.90;;;;;;5050445;28;19915;-59
2022/10/12 01:10:18;;;;;;;;;;;27.00;99.90;;;;;;5035126;28;20003;-59
2022/10/12 01:12:46;;;;;;;;;;;26.90;99.90;;;;;;5035141;28;19905;-59
2022/10/12 01:15:12;;;;;;;;;;;26.90;99.90;;;;;;5035071;28;19920;-60
2022/10/12 01:17:50;;;;;;;;;;;26.90;99.90;;;;;;5035236;28;19905;-60
2022/10/12 01:20:24;;;;;;;;;;;26.90;99.90;;;;;;5034941;28;19999;-59
2022/10/12 01:22:59;;;;;;;;;;;26.90;99.90;;;;;;5034824;28;19996;-59
2022/10/12 01:25:27;;;;;;;;;;;26.90;99.90;;;;;;5034870;28;19909;-59
2022/10/12 01:27:55;;;;;;;;;;;26.90;99.90;;;;;;5034851;28;19905;-59
2022/10/12 01:30:34;;;;;;;;;;;26.90;99.90;;;;;;5033584;28;20006;-58
2022/10/12 01:33:13;;;;;;;;;;;26.90;99.90;;;;;;5034700;28;19904;-59
2022/10/12 01:36:09;;;;;;;;;;;26.90;99.90;;;;;;5034880;28;19919;-60
2022/10/12 01:38:50;;;;;;;;;;;26.90;99.90;;;;;;5029827;28;19935;-60
2022/10/12 01:41:16;;;;;;;;;;;26.80;99.90;;;;;;5034388;28;19905;-60
2022/10/12 01:43:42;;;;;;;;;;;26.90;99.90;;;;;;5034588;28;19905;-59
2022/10/12 01:46:13;;;;;;;;;;;26.80;99.90;;;;;;5034569;28;19948;-59
2022/10/12 01:48:39;;;;;;;;;;;26.80;99.90;;;;;;5034558;28;19909;-59
2022/10/12 01:51:05;;;;;;;;;;;26.80;99.90;;;;;;5034373;28;20335;-60
2022/10/12 01:53:38;;;;;;;;;;;26.80;99.90;;;;;;5034172;28;19952;-59
2022/10/12 01:56:07;;;;;;;;;;;26.80;99.90;;;;;;5034363;28;19911;-59
2022/10/12 01:58:33;;;;;;;;;;;26.80;99.90;;;;;;5034055;28;19928;-60
2022/10/12 02:01:20;;;;;;;;;;;26.80;99.90;;;;;;5034633;28;20086;-59
2022/10/12 02:03:56;;;;;;;;;;;26.80;99.90;;;;;;5034069;28;20356;-59
2022/10/12 02:06:27;;;;;;;;;;;26.70;99.90;;;;;;5034141;28;19905;-58
2022/10/12 02:08:55;;;;;;;;;;;26.70;99.90;;;;;;5033575;28;19905;-58
2022/10/12 02:11:23;;;;;;;;;;;26.80;99.90;;;;;;5033980;28;19916;-61
2022/10/12 02:14:05;;;;;;;;;;;26.70;99.90;;;;;;5033974;28;19909;-59
2022/10/12 02:16:33;;;;;;;;;;;26.70;99.90;;;;;;5033900;28;19905;-60
2022/10/12 02:18:59;;;;;;;;;;;26.70;99.90;;;;;;5033838;28;19905;-58
2022/10/12 02:21:31;;;;;;;;;;;26.70;99.90;;;;;;5033840;28;20264;-59
2022/10/12 02:23:59;;;;;;;;;;;26.70;99.90;;;;;;5033807;28;19905;-60
2022/10/12 02:26:25;;;;;;;;;;;26.70;99.90;;;;;;5033684;28;19905;-60
2022/10/12 02:28:51;;;;;;;;;;;26.70;99.90;;;;;;5048935;28;19906;-58
2022/10/12 02:31:40;;;;;;;;;;;26.70;99.90;;;;;;5049001;28;19924;-59
2022/10/12 02:34:08;;;;;;;;;;;26.70;99.90;;;;;;5033222;28;19983;-59
2022/10/12 02:36:36;;;;;;;;;;;26.70;99.90;;;;;;5033584;28;19970;-57
2022/10/12 02:39:13;;;;;;;;;;;26.70;99.90;;;;;;5033769;28;19905;-59
2022/10/12 02:41:46;;;;;;;;;;;26.70;99.90;;;;;;5033524;28;19951;-58
2022/10/12 02:44:13;;;;;;;;;;;26.60;99.90;;;;;;5033388;28;19978;-59
2022/10/12 02:46:40;;;;;;;;;;;26.70;99.90;;;;;;5033462;28;19944;-58
2022/10/12 02:49:06;;;;;;;;;;;26.60;99.90;;;;;;5033400;28;20044;-60
2022/10/12 02:51:32;;;;;;;;;;;26.60;99.90;;;;;;5033352;28;19940;-59
2022/10/12 02:53:58;;;;;;;;;;;26.60;99.90;;;;;;5033293;28;19917;-58
2022/10/12 02:56:24;;;;;;;;;;;26.60;99.90;;;;;;5033360;28;19905;-59
2022/10/12 02:58:49;;;;;;;;;;;26.60;99.90;;;;;;5033028;28;20423;-59
2022/10/12 03:01:15;;;;;;;;;;;26.60;99.90;;;;;;5033742;28;20008;-60
2022/10/12 03:03:41;;;;;;;;;;;26.60;99.90;;;;;;5033214;28;19905;-58
2022/10/12 03:06:07;;;;;;;;;;;26.60;99.90;;;;;;5032845;28;19928;-59
2022/10/12 03:08:33;;;;;;;;;;;26.60;99.90;;;;;;5032934;28;19905;-60
2022/10/12 03:11:02;;;;;;;;;;;26.60;99.90;;;;;;5032859;28;19933;-60
2022/10/12 03:13:28;;;;;;;;;;;26.60;99.90;;;;;;5032794;28;19917;-59
2022/10/12 03:15:53;;;;;;;;;;;26.60;99.90;;;;;;5032826;28;20391;-59
2022/10/12 03:18:19;;;;;;;;;;;26.60;99.90;;;;;;5032846;28;20391;-59
2022/10/12 03:20:47;;;;;;;;;;;26.60;99.90;;;;;;5032067;28;19909;-59
2022/10/12 03:23:13;;;;;;;;;;;26.50;99.90;;;;;;5032830;28;19901;-59
2022/10/12 03:25:40;;;;;;;;;;;26.50;99.90;;;;;;5032882;28;20339;-59
2022/10/12 03:28:06;;;;;;;;;;;26.50;99.90;;;;;;5032526;28;19905;-59
2022/10/12 03:30:31;;;;;;;;;;;26.50;99.90;;;;;;5032512;28;19905;-60
2022/10/12 03:32:57;;;;;;;;;;;26.50;99.90;;;;;;5032464;28;19905;-60
2022/10/12 03:35:23;;;;;;;;;;;26.50;99.90;;;;;;5032318;28;19912;-59
2022/10/12 03:37:48;;;;;;;;;;;26.50;99.90;;;;;;5032343;28;20003;-59
2022/10/12 03:40:14;;;;;;;;;;;26.50;99.90;;;;;;5032455;28;19912;-58
2022/10/12 03:42:39;;;;;;;;;;;26.50;99.90;;;;;;5032389;28;19905;-58
2022/10/12 03:45:05;;;;;;;;;;;26.50;99.90;;;;;;5030965;28;20368;-58
2022/10/12 03:47:31;;;;;;;;;;;26.50;99.90;;;;;;5032072;28;19959;-57
2022/10/12 03:49:56;;;;;;;;;;;26.50;99.90;;;;;;5032059;28;19951;-57
2022/10/12 03:52:22;;;;;;;;;;;26.50;99.90;;;;;;5032000;28;19911;-57
2022/10/12 03:54:49;;;;;;;;;;;26.50;99.90;;;;;;5032215;28;20147;-59
2022/10/12 03:57:14;;;;;;;;;;;26.50;99.90;;;;;;5032043;28;19905;-57
2022/10/12 03:59:40;;;;;;;;;;;26.50;99.90;;;;;;5044282;22;19936;-53
2022/10/12 04:02:05;;;;;;;;;;;26.50;99.90;;;;;;5032316;28;19916;-53
2022/10/12 04:04:31;;;;;;;;;;;26.40;99.90;;;;;;5031856;28;19938;-53
2022/10/12 04:06:57;;;;;;;;;;;26.50;99.90;;;;;;5031790;28;19905;-53
2022/10/12 04:09:22;;;;;;;;;;;26.50;99.90;;;;;;5031641;28;19908;-53
2022/10/12 04:11:48;;;;;;;;;;;26.50;99.90;;;;;;5031977;28;20025;-54
2022/10/12 04:14:13;;;;;;;;;;;26.50;99.90;;;;;;5031500;28;19917;-53
2022/10/12 04:16:39;;;;;;;;;;;26.50;99.90;;;;;;5031638;28;20000;-53
2022/10/12 04:19:05;;;;;;;;;;;26.40;99.90;;;;;;5031438;28;19912;-53
2022/10/12 04:21:30;;;;;;;;;;;26.40;99.90;;;;;;5031499;28;19904;-54
2022/10/12 04:23:56;;;;;;;;;;;26.40;99.90;;;;;;5031480;28;20257;-53
2022/10/12 04:26:22;;;;;;;;;;;26.40;99.90;;;;;;5031586;28;19905;-52
2022/10/12 04:28:47;;;;;;;;;;;26.40;99.90;;;;;;5031640;28;19939;-53
2022/10/12 04:31:13;;;;;;;;;;;26.40;99.90;;;;;;5030173;28;20351;-53
2022/10/12 04:33:38;;;;;;;;;;;26.40;99.90;;;;;;5031077;28;19919;-53
2022/10/12 04:36:04;;;;;;;;;;;26.40;99.90;;;;;;5031350;28;19912;-52
2022/10/12 04:38:30;;;;;;;;;;;26.40;99.90;;;;;;5031310;28;19909;-52
2022/10/12 04:40:56;;;;;;;;;;;26.40;99.90;;;;;;5031334;28;19958;-53
2022/10/12 04:43:22;;;;;;;;;;;26.40;99.90;;;;;;5031228;28;19905;-52
2022/10/12 04:45:57;;;;;;;;;;;26.40;99.90;;;;;;5031532;28;20004;-53
2022/10/12 04:48:24;;;;;;;;;;;26.40;99.90;;;;;;5031254;28;19905;-53
2022/10/12 04:50:49;;;;;;;;;;;26.30;99.90;;;;;;5031344;28;19908;-53
2022/10/12 04:53:15;;;;;;;;;;;26.40;99.90;;;;;;5031330;28;20399;-53
2022/10/12 04:55:41;;;;;;;;;;;26.40;99.90;;;;;;5031278;28;20244;-53
2022/10/12 04:58:06;;;;;;;;;;;26.40;99.90;;;;;;5031194;28;20394;-53
2022/10/12 05:00:32;;;;;;;;;;;26.30;99.90;;;;;;5030959;28;19917;-53
2022/10/12 05:02:57;;;;;;;;;;;26.30;99.90;;;;;;5031174;28;19905;-53
2022/10/12 05:05:23;;;;;;;;;;;26.30;99.90;;;;;;5031076;28;20284;-53
2022/10/12 05:07:49;;;;;;;;;;;26.30;99.90;;;;;;5031345;28;19916;-54
2022/10/12 05:10:14;;;;;;;;;;;26.30;99.90;;;;;;5031003;28;19909;-53
2022/10/12 05:12:41;;;;;;;;;;;26.30;99.90;;;;;;5030983;28;19915;-53
2022/10/12 05:15:07;;;;;;;;;;;26.30;99.90;;;;;;5030865;28;19913;-53
2022/10/12 05:17:33;;;;;;;;;;;26.30;99.90;;;;;;5030890;28;20362;-54
2022/10/12 05:19:58;;;;;;;;;;;26.30;99.90;;;;;;5030907;28;19999;-53
2022/10/12 05:22:24;;;;;;;;;;;26.30;99.90;;;;;;5030867;28;19905;-53
2022/10/12 05:24:49;;;;;;;;;;;26.30;99.90;;;;;;5031215;28;19975;-53
2022/10/12 05:27:15;;;;;;;;;;;26.30;99.90;;;;;;5030796;28;19938;-53
2022/10/12 05:29:41;;;;;;;;;;;26.30;99.90;;;;;;5030700;28;19912;-53
2022/10/12 05:32:06;;;;;;;;;;;26.30;99.90;;;;;;5030742;28;19989;-53
2022/10/12 05:34:32;;;;;;;;;;;26.30;99.90;;;;;;5030574;28;19974;-53
2022/10/12 05:36:58;;;;;;;;;;;26.30;99.90;;;;;;5030538;28;19905;-52
2022/10/12 05:39:23;;;;;;;;;;;26.20;99.90;;;;;;5030586;28;19955;-53
2022/10/12 05:41:50;;;;;;;;;;;26.20;99.90;;;;;;5031185;28;19917;-53
2022/10/12 05:44:15;;;;;;;;;;;26.20;99.90;;;;;;5031750;28;19943;-54
2022/10/12 05:46:41;;;;;;;;;;;26.20;99.90;;;;;;5034076;28;19948;-52
2022/10/12 05:49:07;;;;;;;;;;;26.20;99.90;;;;;;5034013;28;20335;-52
2022/10/12 05:51:32;;;;;;;;;;;26.20;99.90;;;;;;5033969;28;19941;-51
2022/10/12 05:53:58;;;;;;;;;;;26.20;99.90;;;;;;5034029;28;19924;-53
2022/10/12 05:56:23;;;;;;;;;;;26.20;99.90;;;;;;5034101;28;19905;-53
2022/10/12 05:58:49;;;;;;;;;;;26.20;99.90;;;;;;5033890;28;20257;-53
2022/10/12 06:01:15;;;;;;;;;;;26.20;99.90;;;;;;5033859;28;19928;-52
2022/10/12 06:03:41;;;;;;;;;;;26.20;99.90;;;;;;5033816;28;20004;-52
2022/10/12 06:06:06;;;;;;;;;;;26.20;99.90;;;;;;5033671;28;19905;-52
2022/10/12 06:08:33;;;;;;;;;;;26.20;99.90;;;;;;5033742;28;19905;-53
2022/10/12 06:10:58;;;;;;;;;;;26.20;99.90;;;;;;5033684;28;19909;-53
2022/10/12 06:13:24;;;;;;;;;;;26.20;99.90;;;;;;5033816;28;19912;-52
2022/10/12 06:15:50;;;;;;;;;;;26.20;99.90;;;;;;5033802;28;20435;-53
2022/10/12 06:18:16;;;;;;;;;;;26.20;99.90;;;;;;5033650;28;20670;-54
2022/10/12 06:20:45;;;;;;;;;;;26.20;99.90;;;;;;5033532;28;20359;-53
2022/10/12 06:23:10;;;;;;;;;;;26.10;99.90;;;;;;5033547;28;19905;-53
2022/10/12 06:25:36;;;;;;;;;;;26.10;99.90;;;;;;5033632;28;20384;-53
2022/10/12 06:28:01;;;;;;;;;;;26.10;99.90;;;;;;5033502;28;19920;-53
2022/10/12 06:30:27;;;;;;;;;;;26.10;99.90;;;;;;5033390;28;20324;-53
2022/10/12 06:32:53;;;;;;;;;;;26.10;99.90;;;;;;5033604;28;19909;-53
2022/10/12 06:35:18;;;;;;;;;;;26.10;99.90;;;;;;5033361;28;20004;-52
2022/10/12 06:37:47;;;;;;;;;;;26.10;99.90;;;;;;5033430;28;19905;-53
2022/10/12 06:40:13;;;;;;;;;;;26.10;99.90;;;;;;5033246;28;19991;-52
2022/10/12 06:42:38;;;;;;;;;;;26.10;99.90;;;;;;5033211;28;20303;-53
2022/10/12 06:45:05;;;;;;;;;;;26.10;99.90;;;;;;5033058;28;19905;-54
2022/10/12 06:47:30;;;;;;;;;;;26.10;99.90;;;;;;5033164;28;20276;-55
2022/10/12 06:49:56;;;;;;;;;;;26.10;99.90;;;;;;5033326;28;19901;-54
2022/10/12 06:52:21;;;;;;;;;;;26.10;99.90;;;;;;5033030;28;20037;-53
2022/10/12 06:54:47;;;;;;;;;;;26.10;99.90;;;;;;5032618;28;20570;-53
2022/10/12 06:57:12;;;;;;;;;;;26.10;99.90;;;;;;5032178;28;19905;-53
2022/10/12 06:59:38;;;;;;;;;;;26.10;99.90;;;;;;5032856;28;20003;-54
2022/10/12 07:02:04;;;;;;;;;;;26.10;99.90;;;;;;5033033;28;20296;-53
2022/10/12 07:04:30;;;;;;;;;;;26.10;99.90;;;;;;5033004;28;19905;-54
2022/10/12 07:06:56;;;;;;;;;;;26.10;99.90;;;;;;5032871;28;19913;-53
2022/10/12 07:09:22;;;;;;;;;;;26.10;99.90;;;;;;5032791;28;19905;-54
2022/10/12 07:11:47;;;;;;;;;;;26.00;99.90;;;;;;5032747;28;20357;-54
2022/10/12 07:14:13;;;;;;;;;;;26.00;99.90;;;;;;5032514;28;19971;-53
2022/10/12 07:16:39;;;;;;;;;;;26.00;99.90;;;;;;5032562;28;20042;-53
2022/10/12 07:19:04;;;;;;;;;;;26.10;99.90;;;;;;5032497;28;20005;-53
2022/10/12 07:21:30;;;;;;;;;;;26.00;99.90;;;;;;5032394;28;20297;-53
2022/10/12 07:23:55;;;;;;;;;;;26.10;99.90;;;;;;5032578;28;19905;-53
2022/10/12 07:26:21;;;;;;;;;;;26.10;99.90;;;;;;5032382;28;20295;-53
2022/10/12 07:28:47;;;;;;;;;;;26.10;99.90;;;;;;5032166;28;20421;-53
2022/10/12 07:31:12;;;;;;;;;;;26.00;99.90;;;;;;5032473;28;19906;-53
2022/10/12 07:33:38;;;;;;;;;;;26.10;99.90;;;;;;5032206;28;20365;-53
2022/10/12 07:36:04;;;;;;;;;;;26.10;99.90;;;;;;5047715;28;19905;-53
2022/10/12 07:38:30;;;;;;;;;;;26.00;99.90;;;;;;5032322;28;19905;-54
2022/10/12 07:41:02;;;;;;;;;;;26.10;99.90;;;;;;5032602;28;19913;-53
2022/10/12 07:43:28;;;;;;;;;;;26.10;99.90;;;;;;5032420;28;20035;-53
2022/10/12 07:45:54;;;;;;;;;;;26.10;99.90;;;;;;5030864;28;19905;-53
2022/10/12 07:48:20;;;;;;;;;;;26.10;99.90;;;;;;5032110;28;19909;-54
2022/10/12 07:50:46;;;;;;;;;;;26.10;99.90;;;;;;5031874;28;20303;-53
2022/10/12 07:53:12;;;;;;;;;;;26.10;99.90;;;;;;5032026;28;19905;-53
2022/10/12 07:55:37;;;;;;;;;;;26.10;99.90;;;;;;5031907;28;20000;-53
2022/10/12 07:58:03;;;;;;;;;;;26.10;99.90;;;;;;5031973;28;19995;-54
2022/10/12 08:00:30;;;;;;;;;;;26.10;99.90;;;;;;5032036;28;19917;-54
2022/10/12 08:02:55;;;;;;;;;;;26.10;99.90;;;;;;5031836;28;19905;-54
2022/10/12 08:05:21;;;;;;;;;;;26.10;99.90;;;;;;5032073;28;19915;-56
2022/10/12 08:07:47;;;;;;;;;;;26.10;99.90;;;;;;5031615;28;20303;-54
2022/10/12 08:10:13;;;;;;;;;;;26.10;99.90;;;;;;5031670;28;19909;-54
2022/10/12 08:12:38;;;;;;;;;;;26.10;99.90;;;;;;5031715;28;19951;-54
2022/10/12 08:15:04;;;;;;;;;;;26.10;99.90;;;;;;5031609;28;20357;-54
2022/10/12 08:17:30;;;;;;;;;;;26.20;99.90;;;;;;5031638;28;19915;-53
2022/10/12 08:19:56;;;;;;;;;;;26.20;99.90;;;;;;5031568;28;19999;-54
2022/10/12 08:22:21;;;;;;;;;;;26.20;99.90;;;;;;5031463;28;19908;-54
2022/10/12 08:24:47;;;;;;;;;;;26.20;99.90;;;;;;5031304;28;19909;-54
2022/10/12 08:27:12;;;;;;;;;;;26.20;99.90;;;;;;5031473;28;20170;-53
2022/10/12 08:29:38;;;;;;;;;;;26.20;99.90;;;;;;5031334;28;19905;-53
2022/10/12 08:32:04;;;;;;;;;;;26.30;99.90;;;;;;5046491;28;19905;-54
2022/10/12 08:34:30;;;;;;;;;;;26.30;99.90;;;;;;5030098;28;19921;-54
2022/10/12 08:36:56;;;;;;;;;;;26.30;99.90;;;;;;5031086;28;20318;-54
2022/10/12 08:39:22;;;;;;;;;;;26.30;99.90;;;;;;5031290;28;19905;-54
2022/10/12 08:42:26;;;;;;;;;;;26.30;99.90;;;;;;5031373;28;19932;-53
2022/10/12 08:44:51;;;;;;;;;;;26.30;99.90;;;;;;5009021;28;19976;-54
2022/10/12 08:47:29;;;;;;;;;;;26.30;99.90;;;;;;5009134;28;19976;-54
2022/10/12 08:49:55;;;;;;;;;;;26.40;99.90;;;;;;5021050;28;19912;-54
2022/10/12 08:52:32;;;;;;;;;;;26.30;99.90;;;;;;5031169;28;19905;-54
2022/10/12 08:55:00;;;;;;;;;;;26.40;99.90;;;;;;5030948;28;19920;-54
2022/10/12 08:57:26;;;;;;;;;;;26.40;99.90;;;;;;5030958;28;20353;-54
2022/10/12 08:59:52;;;;;;;;;;;26.40;99.90;;;;;;5030946;28;19917;-54
2022/10/12 09:02:20;;;;;;;;;;;26.40;99.90;;;;;;5030934;28;19909;-54
2022/10/12 09:05:05;;;;;;;;;;;26.40;99.90;;;;;;5030903;28;19901;-54
2022/10/12 09:07:30;;;;;;;;;;;26.40;99.90;;;;;;5031146;28;19913;-54
2022/10/12 09:09:59;;;;;;;;;;;26.40;99.90;;;;;;5030828;28;19955;-54
2022/10/12 09:12:31;;;;;;;;;;;26.40;99.90;;;;;;5030935;28;19916;-54
2022/10/12 09:15:00;;;;;;;;;;;26.50;99.90;;;;;;5030685;28;19983;-54
2022/10/12 09:17:39;;;;;;;;;;;26.50;99.90;;;;;;5030816;28;19915;-54
2022/10/12 09:20:14;;;;;;;;;;;26.50;99.90;;;;;;5033515;28;19952;-53
2022/10/12 09:22:42;;;;;;;;;;;26.50;99.90;;;;;;5034400;28;19924;-54
2022/10/12 09:25:11;;;;;;;;;;;26.50;99.90;;;;;;5034554;28;19912;-53
2022/10/12 09:27:37;;;;;;;;;;;26.50;99.90;;;;;;5034577;28;19968;-54
2022/10/12 09:30:03;;;;;;;;;;;26.50;99.90;;;;;;5034669;28;20016;-54
2022/10/12 09:32:28;;;;;;;;;;;26.50;99.90;;;;;;5034431;28;19924;-53
2022/10/12 09:34:54;;;;;;;;;;;26.60;99.90;;;;;;5034178;28;20284;-53
2022/10/12 09:37:21;;;;;;;;;;;26.60;99.90;;;;;;5034297;28;19908;-53
2022/10/12 09:39:47;;;;;;;;;;;26.60;99.90;;;;;;5034243;28;20352;-54
2022/10/12 09:42:13;;;;;;;;;;;26.60;99.90;;;;;;5034195;28;19997;-54
2022/10/12 09:44:41;;;;;;;;;;;26.60;99.90;;;;;;5034228;28;19940;-53
2022/10/12 09:47:22;;;;;;;;;;;26.60;99.90;;;;;;5034144;28;19959;-53
2022/10/12 09:49:49;;;;;;;;;;;26.60;99.90;;;;;;5034162;28;19912;-53
2022/10/12 09:52:16;;;;;;;;;;;26.60;99.90;;;;;;5033964;28;20257;-54
2022/10/12 09:54:46;;;;;;;;;;;26.60;99.90;;;;;;5033959;28;20320;-54
2022/10/12 09:57:25;;;;;;;;;;;26.70;99.90;;;;;;5033969;28;19905;-54
2022/10/12 09:59:50;;;;;;;;;;;26.70;99.90;;;;;;5033874;28;19913;-54
2022/10/12 10:02:25;;;;;;;;;;;26.70;99.90;;;;;;5033854;28;20049;-54
2022/10/12 10:04:53;;;;;;;;;;;26.70;99.90;;;;;;5033806;28;19912;-54
2022/10/12 10:07:19;;;;;;;;;;;26.70;99.90;;;;;;5033564;28;19912;-54
2022/10/12 10:09:45;;;;;;;;;;;26.70;99.90;;;;;;5033773;28;19912;-55
2022/10/12 10:12:22;;;;;;;;;;;26.80;99.90;;;;;;5033938;28;19916;-55
2022/10/12 10:14:50;;;;;;;;;;;26.80;99.90;;;;;;5033584;28;19920;-53
2022/10/12 10:17:22;;;;;;;;;;;26.80;99.90;;;;;;5033679;28;20328;-54
2022/10/12 10:19:51;;;;;;;;;;;26.80;99.90;;;;;;5049154;28;19905;-53
2022/10/12 10:22:18;;;;;;;;;;;26.90;99.90;;;;;;5049022;28;19912;-53
2022/10/12 10:24:48;;;;;;;;;;;26.90;99.90;;;;;;5033583;28;19927;-53
2022/10/12 10:27:35;;;;;;;;;;;26.90;99.90;;;;;;5033572;28;19912;-53
2022/10/12 10:30:17;;;;;;;;;;;26.90;99.90;;;;;;5032238;28;19905;-53
2022/10/12 10:32:43;;;;;;;;;;;27.00;99.90;;;;;;5033435;28;20283;-54
2022/10/12 10:35:12;;;;;;;;;;;27.00;99.90;;;;;;5033268;28;20288;-53
2022/10/12 10:37:42;;;;;;;;;;;27.10;99.90;;;;;;5033571;28;19928;-54
2022/10/12 10:40:19;;;;;;;;;;;27.10;99.90;;;;;;5033518;28;19905;-53
2022/10/12 10:42:48;;;;;;;;;;;27.10;99.90;;;;;;5033404;28;19958;-54
2022/10/12 10:45:21;;;;;;;;;;;27.10;99.90;;;;;;5033275;28;20288;-54
2022/10/12 10:47:46;;;;;;;;;;;27.10;99.90;;;;;;5032020;28;19983;-53
2022/10/12 10:50:32;;;;;;;;;;;27.20;99.90;;;;;;5033215;28;19945;-53
2022/10/12 10:53:00;;;;;;;;;;;27.20;99.90;;;;;;5033270;28;20268;-53
2022/10/12 10:55:46;;;;;;;;;;;27.20;99.90;;;;;;5031810;28;20288;-54
2022/10/12 10:58:30;;;;;;;;;;;27.30;99.90;;;;;;5032969;28;19991;-54
2022/10/12 11:00:59;;;;;;;;;;;27.30;99.90;;;;;;5032761;28;19924;-54
2022/10/12 11:03:30;;;;;;;;;;;27.30;99.90;;;;;;5033001;28;19905;-53
2022/10/12 11:06:04;;;;;;;;;;;27.30;99.90;;;;;;5032752;28;19908;-53
2022/10/12 11:08:32;;;;;;;;;;;27.40;99.90;;;;;;5032767;28;20391;-54
2022/10/12 11:11:01;;;;;;;;;;;27.40;99.90;;;;;;5032833;28;20401;-54
2022/10/12 11:13:42;;;;;;;;;;;27.50;99.90;;;;;;5032654;28;19905;-53
2022/10/12 11:16:26;;;;;;;;;;;27.50;99.90;;;;;;5032838;28;19912;-54
2022/10/12 11:18:55;;;;;;;;;;;27.50;99.90;;;;;;5032715;28;19912;-54
2022/10/12 11:21:23;;;;;;;;;;;27.60;99.90;;;;;;5032209;28;19912;-54
2022/10/12 11:24:15;;;;;;;;;;;27.60;99.90;;;;;;5032364;28;19909;-54
2022/10/12 11:26:45;;;;;;;;;;;27.60;99.90;;;;;;5031395;28;19916;-53
2022/10/12 11:29:12;;;;;;;;;;;27.70;99.90;;;;;;5032597;28;19909;-53
2022/10/12 11:31:41;;;;;;;;;;;27.70;99.90;;;;;;5032483;28;19905;-53
2022/10/12 11:34:10;;;;;;;;;;;27.80;99.90;;;;;;5032240;28;19913;-53
2022/10/12 11:36:38;;;;;;;;;;;27.80;99.90;;;;;;5032289;28;20267;-53
2022/10/12 11:39:13;;;;;;;;;;;27.80;99.90;;;;;;5032271;28;19905;-53
2022/10/12 11:41:45;;;;;;;;;;;27.80;99.90;;;;;;5031822;28;19905;-53
2022/10/12 11:44:29;;;;;;;;;;;27.80;99.90;;;;;;5032337;28;20356;-53
2022/10/12 11:47:00;;;;;;;;;;;27.90;99.90;;;;;;5031937;28;19905;-53
2022/10/12 11:49:35;;;;;;;;;;;27.80;99.90;;;;;;5032064;28;19905;-53
2022/10/12 11:52:08;;;;;;;;;;;27.80;99.90;;;;;;5031951;28;19911;-53
2022/10/12 11:55:06;;;;;;;;;;;27.90;99.90;;;;;;5031911;28;19917;-53
2022/10/12 11:57:33;;;;;;;;;;;27.90;99.90;;;;;;5019501;28;20283;-54
2022/10/12 12:00:21;;;;;;;;;;;27.90;99.90;;;;;;5031682;28;19948;-53
2022/10/12 12:02:54;;;;;;;;;;;27.90;99.90;;;;;;5031732;28;19981;-54
2022/10/12 12:05:20;;;;;;;;;;;27.90;99.90;;;;;;5031912;28;19911;-53
2022/10/12 12:07:50;;;;;;;;;;;27.90;99.90;;;;;;5031449;28;19992;-54
2022/10/12 12:10:24;;;;;;;;;;;27.90;99.90;;;;;;5031516;28;19995;-53
2022/10/12 12:13:21;;;;;;;;;;;27.90;99.90;;;;;;5031497;28;19905;-54
2022/10/12 12:15:48;;;;;;;;;;;27.90;99.90;;;;;;5027030;28;19913;-54
2022/10/12 12:18:16;;;;;;;;;;;27.90;99.90;;;;;;5031874;28;19916;-54
2022/10/12 12:20:41;;;;;;;;;;;27.90;99.90;;;;;;5031771;28;20284;-54
2022/10/12 12:23:40;;;;;;;;;;;27.90;99.90;;;;;;5031528;28;19905;-54
2022/10/12 12:26:12;;;;;;;;;;;27.90;99.90;;;;;;5019424;28;19909;-54
2022/10/12 12:28:41;;;;;;;;;;;28.00;99.90;;;;;;5031471;28;20360;-54
2022/10/12 12:31:23;;;;;;;;;;;28.00;99.90;;;;;;5031491;28;19905;-55
2022/10/12 12:33:59;;;;;;;;;;;28.00;99.90;;;;;;5031358;28;19923;-54
2022/10/12 12:36:30;;;;;;;;;;;28.00;99.90;;;;;;5031438;28;19905;-54
2022/10/12 12:38:56;;;;;;;;;;;28.00;99.90;;;;;;5031269;28;19912;-53
2022/10/12 12:41:45;;;;;;;;;;;28.00;99.90;;;;;;5031408;28;19905;-54
2022/10/12 12:44:29;;;;;;;;;;;28.00;99.90;;;;;;5031476;28;19913;-54
2022/10/12 12:46:55;;;;;;;;;;;28.00;99.90;;;;;;5031369;28;20265;-54
2022/10/12 12:49:43;;;;;;;;;;;28.10;99.90;;;;;;5031223;28;19916;-53
2022/10/12 12:52:15;;;;;;;;;;;28.10;99.90;;;;;;5031097;28;20252;-54
2022/10/12 12:54:51;;;;;;;;;;;28.20;99.90;;;;;;5034883;28;19913;-54
2022/10/12 12:57:28;;;;;;;;;;;28.20;99.90;;;;;;5035281;28;20311;-53
2022/10/12 13:00:03;;;;;;;;;;;28.20;99.90;;;;;;5035168;28;19913;-53
2022/10/12 13:02:47;;;;;;;;;;;28.20;99.90;;;;;;5035071;28;19905;-53
2022/10/12 13:05:13;;;;;;;;;;;28.20;99.90;;;;;;5035314;28;19912;-53
2022/10/12 13:07:53;;;;;;;;;;;28.20;99.90;;;;;;5035009;28;19984;-53
2022/10/12 13:10:27;;;;;;;;;;;28.30;99.90;;;;;;5034845;28;19906;-53
2022/10/12 13:13:11;;;;;;;;;;;28.30;99.90;;;;;;5034905;28;20367;-53
2022/10/12 13:15:37;;;;;;;;;;;28.30;99.90;;;;;;5034737;28;19913;-53
2022/10/12 13:18:14;;;;;;;;;;;28.30;99.90;;;;;;5050036;28;20268;-52
2022/10/12 13:20:45;;;;;;;;;;;28.40;99.90;;;;;;5034662;28;20074;-53
2022/10/12 13:23:14;;;;;;;;;;;28.40;99.90;;;;;;5034619;28;19948;-53
2022/10/12 13:25:46;;;;;;;;;;;28.40;99.90;;;;;;5034525;28;19905;-53
2022/10/12 13:28:17;;;;;;;;;;;28.40;99.90;;;;;;5034469;28;19905;-53
2022/10/12 13:30:54;;;;;;;;;;;28.50;99.90;;;;;;5034478;28;19919;-53
2022/10/12 13:33:25;;;;;;;;;;;28.50;99.90;;;;;;5033003;28;19905;-53
2022/10/12 13:36:01;;;;;;;;;;;28.50;99.90;;;;;;5049707;28;19917;-53
2022/10/12 13:38:28;;;;;;;;;;;28.50;99.90;;;;;;5034631;28;19905;-53
2022/10/12 13:41:01;;;;;;;;;;;28.50;99.90;;;;;;5032846;28;19909;-53
2022/10/12 13:43:32;;;;;;;;;;;28.50;99.90;;;;;;5034268;28;19905;-53
2022/10/12 13:45:58;;;;;;;;;;;28.50;99.90;;;;;;5034397;28;20256;-53
2022/10/12 13:48:24;;;;;;;;;;;28.50;99.90;;;;;;5034222;28;20259;-53
2022/10/12 13:50:53;;;;;;;;;;;28.50;99.90;;;;;;5034287;28;19909;-52
2022/10/12 13:53:20;;;;;;;;;;;28.50;99.90;;;;;;5034353;28;19905;-52
2022/10/12 13:56:09;;;;;;;;;;;28.60;99.90;;;;;;5034242;28;19913;-53
2022/10/12 13:58:34;;;;;;;;;;;28.60;99.90;;;;;;5030779;28;19905;-52
2022/10/12 14:01:01;;;;;;;;;;;28.60;99.90;;;;;;5033997;28;20024;-53
2022/10/12 14:03:34;;;;;;;;;;;28.60;99.90;;;;;;5034083;28;19909;-54
2022/10/12 14:06:00;;;;;;;;;;;28.60;99.90;;;;;;5033343;28;19988;-52
2022/10/12 14:08:26;;;;;;;;;;;28.70;99.90;;;;;;5034021;28;20020;-53
2022/10/12 14:10:53;;;;;;;;;;;28.70;99.90;;;;;;5033709;28;20325;-52
2022/10/12 14:13:29;;;;;;;;;;;28.70;99.90;;;;;;5034007;28;20453;-52
2022/10/12 14:15:56;;;;;;;;;;;28.70;99.90;;;;;;5033807;28;19967;-52
2022/10/12 14:18:49;;;;;;;;;;;28.70;99.90;;;;;;5033895;28;20378;-52
2022/10/12 14:21:18;;;;;;;;;;;28.80;99.90;;;;;;5032576;28;19909;-52
2022/10/12 14:23:45;;;;;;;;;;;28.80;99.90;;;;;;5033901;28;19951;-52
2022/10/12 14:26:25;;;;;;;;;;;28.80;99.90;;;;;;5033515;28;19953;-52
2022/10/12 14:28:50;;;;;;;;;;;28.90;99.90;;;;;;5033828;28;20483;-52